Time;durP1;ratioP1;P1;durP2;ratioP2;P2;SDS_P1;SDS_P2;PMS_P1;PMS_P2;Temp;Humidity;BMP_temperature;BMP_pressure;BME280_temperature;BME280_humidity;BME280_pressure;Samples;Min_cycle;Max_cycle;Signal;HPM_P1;HPM_P2
2022/05/28 00:01:15;;;;;;;9.43;7.80;;;;;;;26.24;60.49;100535.88;5112971;28;20056;-76
2022/05/28 00:03:43;;;;;;;11.07;8.05;;;;;;;26.24;60.36;100535.88;5114102;28;20047;-76
2022/05/28 00:06:13;;;;;;;9.52;7.93;;;;;;;26.26;60.39;100533.84;5114782;28;20054;-76
2022/05/28 00:08:41;;;;;;;11.27;8.05;;;;;;;26.26;60.23;100531.13;5114874;28;20051;-76
2022/05/28 00:11:30;;;;;;;10.77;8.23;;;;;;;26.27;59.94;100517.38;5114737;28;20039;-77
2022/05/28 00:13:58;;;;;;;10.93;8.40;;;;;;;26.28;59.90;100521.75;5113009;28;20048;-77
2022/05/28 00:16:25;;;;;;;10.40;7.45;;;;;;;26.29;59.91;100517.16;5114825;28;20047;-77
2022/05/28 00:18:53;;;;;;;10.13;8.15;;;;;;;26.29;59.98;100514.44;5115285;28;20047;-77
2022/05/28 00:21:23;;;;;;;11.20;8.25;;;;;;;26.30;59.92;100514.28;5114512;28;20047;-77
2022/05/28 00:23:50;;;;;;;10.32;7.95;;;;;;;26.30;59.78;100510.72;5111902;28;20064;-77
2022/05/28 00:26:18;;;;;;;12.35;8.35;;;;;;;26.30;59.97;100502.59;5114348;28;20043;-77
2022/05/28 00:28:46;;;;;;;12.70;8.90;;;;;;;26.31;59.90;100498.84;5114748;28;20043;-77
2022/05/28 00:31:14;;;;;;;11.23;8.20;;;;;;;26.31;59.72;100496.13;5114162;28;20102;-77
2022/05/28 00:33:41;;;;;;;10.23;7.78;;;;;;;26.30;59.61;100492.56;5112227;28;20501;-77
2022/05/28 00:36:10;;;;;;;11.63;8.77;;;;;;;26.31;59.43;100493.41;5112129;28;20052;-76
2022/05/28 00:38:40;;;;;;;15.68;9.02;;;;;;;26.31;59.35;100483.41;5114227;28;20483;-77
2022/05/28 00:41:08;;;;;;;15.38;8.55;;;;;;;26.32;59.33;100484.22;5113900;28;20044;-77
2022/05/28 00:43:38;;;;;;;14.55;8.63;;;;;;;26.31;59.20;100487.97;5112767;28;20044;-76
2022/05/28 00:46:18;;;;;;;13.38;9.18;;;;;;;26.31;59.04;100477.13;5114638;28;20047;-76
2022/05/28 00:48:50;;;;;;;13.15;9.52;;;;;;;26.31;59.13;100479.84;5100484;28;20075;-77
2022/05/28 00:51:21;;;;;;;11.45;9.63;;;;;;;26.32;58.99;100481.53;5093971;28;20467;-76
2022/05/28 00:53:50;;;;;;;10.02;7.85;;;;;;;26.32;59.03;100473.38;5093889;28;20040;-76
2022/05/28 00:56:17;;;;;;;13.93;8.55;;;;;;;26.31;58.76;100474.41;5093383;28;20044;-77
2022/05/28 00:58:45;;;;;;;11.10;8.90;;;;;;;26.32;58.81;100473.38;5093305;28;20071;-77
2022/05/28 01:01:14;;;;;;;11.38;8.77;;;;;;;26.32;58.98;100467.94;5093487;28;20044;-77
2022/05/28 01:04:16;;;;;;;12.73;8.80;;;;;;;26.31;58.90;100469.00;5104863;28;20050;-77
2022/05/28 01:06:51;;;;;;;13.20;9.25;;;;;;;26.32;58.91;100465.25;5113953;28;20774;-77
2022/05/28 01:09:32;;;;;;;11.27;8.82;;;;;;;26.32;58.72;100459.81;5114178;28;20047;-77
2022/05/28 01:12:10;;;;;;;12.18;9.07;;;;;;;26.32;58.64;100457.94;5111906;28;20055;-77
2022/05/28 01:15:18;;;;;;;13.40;9.25;;;;;;;26.32;58.74;100463.34;5113682;28;20494;-76
2022/05/28 01:17:57;;;;;;;14.55;8.93;;;;;;;26.31;58.58;100450.00;5113142;28;20047;-76
2022/05/28 01:20:34;;;;;;;11.45;9.27;;;;;;;26.32;58.56;100443.53;5113789;28;20054;-76
2022/05/28 01:23:20;;;;;;;12.60;9.05;;;;;;;26.33;58.39;100443.34;5113514;28;20372;-77
2022/05/28 01:26:26;;;;;;;10.65;9.07;;;;;;;26.32;58.49;100444.38;5095459;28;20047;-76
2022/05/28 01:29:00;;;;;;;14.10;9.68;;;;;;;26.32;58.47;100443.53;5113514;28;20043;-76
2022/05/28 01:31:30;;;;;;;12.70;9.45;;;;;;;26.34;58.32;100438.78;5113671;28;20047;-77
2022/05/28 01:34:01;;;;;;;12.05;8.70;;;;;;;26.33;58.36;100442.50;5099731;28;20399;-77
2022/05/28 01:36:30;;;;;;;10.80;8.55;;;;;;;26.33;58.36;100445.19;5091807;28;20488;-77
2022/05/28 01:38:58;;;;;;;10.23;9.15;;;;;;;26.32;58.45;100441.66;5093371;28;20052;-77
2022/05/28 01:41:29;;;;;;;13.52;9.25;;;;;;;26.32;58.26;100440.81;5092942;28;20040;-76
2022/05/28 01:43:58;;;;;;;12.75;9.38;;;;;;;26.32;58.29;100424.53;5092677;28;20039;-77
2022/05/28 01:46:27;;;;;;;13.65;8.90;;;;;;;26.32;58.14;100424.53;5093426;28;20055;-77
2022/05/28 01:48:55;;;;;;;14.75;9.50;;;;;;;26.32;58.35;100425.38;5091534;28;20063;-77
2022/05/28 01:51:27;;;;;;;13.77;9.18;;;;;;;26.32;58.53;100408.25;5092600;28;20044;-77
2022/05/28 01:54:11;;;;;;;12.82;9.43;;;;;;;26.32;58.46;100410.97;5092914;28;20044;-76
2022/05/28 01:56:46;;;;;;;12.82;10.05;;;;;;;26.32;58.27;100410.97;5093600;28;20048;-77
2022/05/28 01:59:16;;;;;;;13.55;9.10;;;;;;;26.32;58.09;100413.69;5093264;28;20052;-77
2022/05/28 02:01:44;;;;;;;10.05;8.93;;;;;;;26.32;58.31;100419.94;5092918;28;20041;-77
2022/05/28 02:04:12;;;;;;;12.05;8.57;;;;;;;26.32;58.29;100424.53;5102527;28;20506;-77
2022/05/28 02:06:40;;;;;;;11.55;8.38;;;;;;;26.32;58.31;100413.69;5112200;28;20040;-77
2022/05/28 02:09:14;;;;;;;11.45;8.52;;;;;;;26.31;57.99;100415.56;5112888;28;20043;-77
2022/05/28 02:11:48;;;;;;;15.90;9.20;;;;;;;26.32;58.32;100413.69;5111929;28;20044;-77
2022/05/28 02:14:28;;;;;;;12.05;8.98;;;;;;;26.31;58.00;100415.56;5111795;28;20416;-76
2022/05/28 02:17:01;;;;;;;11.63;9.60;;;;;;;26.31;58.27;100418.25;5113218;28;20055;-76
2022/05/28 02:19:44;;;;;;;11.77;8.27;;;;;;;26.31;58.29;100410.13;5111554;28;20051;-76
2022/05/28 02:22:24;;;;;;;14.90;9.50;;;;;;;26.32;57.96;100419.94;5112941;28;20059;-76
2022/05/28 02:24:56;;;;;;;15.80;8.93;;;;;;;26.32;58.47;100419.94;5112758;28;20042;-77
2022/05/28 02:27:26;;;;;;;11.50;8.32;;;;;;;26.33;58.38;100420.78;5112143;28;20059;-77
2022/05/28 02:29:53;;;;;;;9.30;8.40;;;;;;;26.32;58.30;100417.22;5112749;28;20047;-77
2022/05/28 02:32:23;;;;;;;12.73;8.73;;;;;;;26.32;58.43;100409.09;5111716;28;20388;-77
2022/05/28 02:34:50;;;;;;;9.85;8.35;;;;;;;26.33;58.38;100409.91;5112697;28;20050;-77
2022/05/28 02:37:20;;;;;;;15.07;9.07;;;;;;;26.32;58.51;100410.97;5112731;28;20507;-76
2022/05/28 02:39:48;;;;;;;10.73;9.02;;;;;;;26.32;58.46;100413.69;5112737;28;20043;-77
2022/05/28 02:42:16;;;;;;;9.32;8.38;;;;;;;26.32;58.31;100400.09;5112526;28;20054;-77
2022/05/28 02:44:44;;;;;;;9.90;8.75;;;;;;;26.31;58.62;100401.13;5112843;28;20047;-77
2022/05/28 02:47:11;;;;;;;12.75;9.65;;;;;;;26.31;58.35;100401.97;5114181;28;20047;-78
2022/05/28 02:49:39;;;;;;;12.45;9.68;;;;;;;26.31;58.37;100409.28;5103381;28;20058;-78
2022/05/28 02:52:07;;;;;;;11.38;8.80;;;;;;;26.30;58.54;100408.44;5095655;28;20388;-78
2022/05/28 02:54:35;;;;;;;12.73;9.05;;;;;;;26.31;58.34;100406.56;5096019;28;20043;-78
2022/05/28 02:57:04;;;;;;;11.45;9.05;;;;;;;26.30;58.43;100403.03;5095895;28;20052;-78
2022/05/28 02:59:32;;;;;;;12.70;8.95;;;;;;;26.30;58.55;100408.44;5095885;28;20051;-78
2022/05/28 03:01:59;;;;;;;12.95;9.43;;;;;;;26.31;58.20;100406.56;5095485;28;20047;-78
2022/05/28 03:04:27;;;;;;;10.27;9.27;;;;;;;26.30;58.28;100404.91;5098602;28;20031;-77
2022/05/28 03:06:55;;;;;;;9.48;8.02;;;;;;;26.29;58.28;100401.34;5115478;28;20040;-77
2022/05/28 03:09:22;;;;;;;10.52;8.18;;;;;;;26.29;58.27;100397.75;5115826;28;20122;-77
2022/05/28 03:11:50;;;;;;;11.27;7.85;;;;;;;26.28;58.27;100399.63;5116165;28;20051;-78
2022/05/28 03:14:17;;;;;;;11.05;8.50;;;;;;;26.30;58.25;100402.19;5115323;27;20039;-77
2022/05/28 03:16:45;;;;;;;13.30;9.10;;;;;;;26.30;58.29;100410.31;5115984;28;20044;-77
2022/05/28 03:19:12;;;;;;;13.00;8.90;;;;;;;26.29;58.36;100403.19;5116215;28;20043;-77
2022/05/28 03:21:40;;;;;;;10.13;9.10;;;;;;;26.29;58.37;100400.47;5115796;28;20048;-77
2022/05/28 03:24:07;;;;;;;10.07;9.02;;;;;;;26.29;58.15;100400.47;5115827;28;20380;-77
2022/05/28 03:26:34;;;;;;;10.27;8.90;;;;;;;26.30;58.31;100407.59;5115574;28;20043;-77
2022/05/28 03:29:03;;;;;;;9.30;8.15;;;;;;;26.30;58.20;100402.19;5115858;28;20040;-77
2022/05/28 03:31:31;;;;;;;10.90;9.38;;;;;;;26.28;58.26;100402.34;5115400;28;20054;-77
2022/05/28 03:33:59;;;;;;;9.32;7.93;;;;;;;26.29;58.04;100393.19;5101457;28;20058;-76
2022/05/28 03:36:27;;;;;;;9.82;8.25;;;;;;;26.29;58.22;100398.63;5093084;28;20044;-77
2022/05/28 03:38:57;;;;;;;9.77;7.50;;;;;;;26.29;58.07;100397.75;5094811;28;20059;-77
2022/05/28 03:41:27;;;;;;;11.50;8.73;;;;;;;26.29;58.17;100398.63;5095436;28;20051;-75
2022/05/28 03:43:55;;;;;;;10.10;8.23;;;;;;;26.28;57.90;100404.22;5095195;28;20149;-76
2022/05/28 03:46:29;;;;;;;12.90;9.05;;;;;;;26.29;58.15;100404.06;5093175;28;20492;-76
2022/05/28 03:49:01;;;;;;;10.82;8.40;;;;;;;26.28;57.73;100391.50;5094897;28;20055;-76
2022/05/28 03:51:30;;;;;;;11.85;7.80;;;;;;;26.29;57.86;100393.19;5095230;28;20055;-76
2022/05/28 03:53:58;;;;;;;12.90;7.63;;;;;;;26.28;57.98;100387.94;5094519;28;20396;-77
2022/05/28 03:56:33;;;;;;;10.85;7.70;;;;;;;26.28;57.89;100385.22;5094498;28;20055;-77
2022/05/28 03:59:01;;;;;;;11.68;8.25;;;;;;;26.29;58.16;100384.19;5094544;28;20043;-77
2022/05/28 04:01:29;;;;;;;10.60;8.45;;;;;;;26.28;58.02;100379.81;5094590;28;20044;-77
2022/05/28 04:03:56;;;;;;;9.70;7.90;;;;;;;26.28;57.62;100383.34;5094214;28;20059;-76
2022/05/28 04:06:24;;;;;;;10.13;8.07;;;;;;;26.28;57.81;100382.50;5109129;28;20032;-77
2022/05/28 04:08:51;;;;;;;10.00;7.75;;;;;;;26.27;57.90;100383.56;5115203;28;20040;-76
2022/05/28 04:11:19;;;;;;;9.70;7.68;;;;;;;26.27;57.96;100375.41;5116178;28;20055;-77
2022/05/28 04:13:47;;;;;;;10.20;7.68;;;;;;;26.26;58.02;100382.72;5117985;28;20039;-77
2022/05/28 04:16:15;;;;;;;10.77;7.72;;;;;;;26.27;57.65;100383.56;5117488;28;20051;-76
2022/05/28 04:18:43;;;;;;;11.32;8.10;;;;;;;26.27;57.95;100388.97;5115928;28;20387;-77
2022/05/28 04:21:11;;;;;;;10.32;7.82;;;;;;;26.26;57.87;100385.44;5114190;28;20055;-77
2022/05/28 04:23:38;;;;;;;9.63;7.32;;;;;;;26.27;57.94;100389.81;5115014;28;20391;-77
2022/05/28 04:26:06;;;;;;;10.50;7.97;;;;;;;26.26;57.64;100388.16;5114505;28;20039;-77
2022/05/28 04:28:33;;;;;;;10.98;7.95;;;;;;;26.27;57.79;100387.09;5114600;28;20042;-77
2022/05/28 04:31:00;;;;;;;8.75;6.95;;;;;;;26.25;57.73;100389.19;5114726;28;20051;-77
2022/05/28 04:33:28;;;;;;;9.55;7.93;;;;;;;26.27;57.70;100402.56;5114591;28;20039;-76
2022/05/28 04:35:55;;;;;;;8.90;7.28;;;;;;;26.26;57.82;100390.84;5113303;28;20411;-77
2022/05/28 04:38:23;;;;;;;8.25;7.10;;;;;;;26.27;57.54;100391.69;5113939;28;20086;-77
2022/05/28 04:40:51;;;;;;;8.27;7.47;;;;;;;26.26;57.73;100384.59;5113098;28;20054;-77
2022/05/28 04:43:18;;;;;;;8.35;6.95;;;;;;;26.26;57.81;100385.44;5111932;28;20407;-77
2022/05/28 04:45:46;;;;;;;9.35;7.30;;;;;;;26.26;57.96;100399.00;5113885;28;20395;-77
2022/05/28 04:48:14;;;;;;;10.52;8.10;;;;;;;26.26;57.90;100392.72;5113831;28;20069;-77
2022/05/28 04:50:42;;;;;;;8.68;7.47;;;;;;;26.25;57.71;100386.47;5093380;28;20040;-76
2022/05/28 04:53:09;;;;;;;9.18;7.78;;;;;;;26.26;57.75;100384.59;5093565;28;20039;-77
2022/05/28 04:55:38;;;;;;;10.60;7.63;;;;;;;26.26;57.92;100376.44;5094042;28;20045;-77
2022/05/28 04:58:06;;;;;;;7.88;6.72;;;;;;;26.26;57.82;100373.75;5093850;28;20048;-77
2022/05/28 05:00:33;;;;;;;8.40;7.40;;;;;;;26.26;57.84;100373.75;5093509;28;20044;-77
2022/05/28 05:03:01;;;;;;;7.80;7.00;;;;;;;26.25;57.94;100375.63;5109113;28;20048;-77
2022/05/28 05:05:28;;;;;;;9.38;6.97;;;;;;;26.25;57.79;100367.47;5100750;28;20039;-77
2022/05/28 05:07:56;;;;;;;8.88;7.00;;;;;;;26.26;57.82;100360.16;5112685;28;20039;-77
2022/05/28 05:10:23;;;;;;;7.82;7.00;;;;;;;26.26;57.85;100352.88;5113137;28;20044;-77
2022/05/28 05:12:51;;;;;;;9.77;6.85;;;;;;;26.25;57.91;100361.19;5113706;28;20062;-77
2022/05/28 05:15:19;;;;;;;9.77;7.28;;;;;;;26.26;57.89;100360.16;5112075;28;20035;-77
2022/05/28 05:17:47;;;;;;;10.52;7.75;;;;;;;26.24;57.85;100357.63;5113301;28;20051;-77
2022/05/28 05:20:14;;;;;;;9.73;7.00;;;;;;;26.24;58.02;100364.94;5113739;28;20502;-77
2022/05/28 05:22:42;;;;;;;7.78;7.00;;;;;;;26.24;57.87;100365.75;5111471;28;20050;-77
2022/05/28 05:25:11;;;;;;;9.18;7.03;;;;;;;26.24;57.96;100351.34;5112166;28;20039;-77
2022/05/28 05:27:39;;;;;;;9.73;7.32;;;;;;;26.24;57.86;100352.19;5114014;28;20088;-77
2022/05/28 05:30:07;;;;;;;11.20;7.03;;;;;;;26.25;57.85;100351.19;5113309;28;20047;-77
2022/05/28 05:32:35;;;;;;;8.82;7.82;;;;;;;26.24;57.77;100352.19;5113427;28;20036;-77
2022/05/28 05:35:02;;;;;;;9.57;6.90;;;;;;;26.24;57.98;100344.06;5113343;28;20050;-77
2022/05/28 05:37:30;;;;;;;8.15;7.03;;;;;;;26.25;57.77;100343.06;5112838;28;20062;-77
2022/05/28 05:39:58;;;;;;;13.68;7.07;;;;;;;26.24;57.92;100346.78;5113084;28;20058;-77
2022/05/28 05:42:25;;;;;;;9.07;7.35;;;;;;;26.25;58.00;100345.75;5113480;28;20113;-77
2022/05/28 05:44:53;;;;;;;8.80;7.25;;;;;;;26.25;58.04;100351.19;5113437;28;20051;-77
2022/05/28 05:47:21;;;;;;;9.45;7.50;;;;;;;26.26;58.25;100341.19;5114189;28;20052;-77
2022/05/28 05:49:50;;;;;;;9.38;7.32;;;;;;;26.24;58.00;100337.78;5113773;28;20387;-77
2022/05/28 05:52:18;;;;;;;13.93;7.80;;;;;;;26.26;58.06;100346.59;5112003;28;20055;-77
2022/05/28 05:54:51;;;;;;;8.45;7.53;;;;;;;26.24;58.11;100338.63;5113115;28;20043;-77
2022/05/28 05:57:19;;;;;;;10.85;8.25;;;;;;;26.26;57.99;100341.19;5113583;28;20044;-78
2022/05/28 05:59:46;;;;;;;8.65;6.95;;;;;;;26.25;57.75;100336.75;5113278;28;20046;-76
2022/05/28 06:02:13;;;;;;;10.00;6.68;;;;;;;26.24;57.86;100338.63;5112999;28;20046;-77
2022/05/28 06:04:41;;;;;;;9.70;6.60;;;;;;;26.24;57.86;100335.91;5113237;28;20529;-77
2022/05/28 06:07:08;;;;;;;6.90;6.20;;;;;;;26.26;58.08;100338.47;5112841;28;20044;-77
2022/05/28 06:09:36;;;;;;;8.15;6.90;;;;;;;26.25;57.97;100329.47;5112250;28;20035;-77
2022/05/28 06:12:03;;;;;;;7.60;6.78;;;;;;;26.25;57.79;100329.47;5113140;28;20383;-77
2022/05/28 06:14:31;;;;;;;8.77;7.15;;;;;;;26.24;57.79;100333.22;5112920;28;20039;-77
2022/05/28 06:16:58;;;;;;;9.73;6.90;;;;;;;26.26;57.89;100319.47;5111530;28;20517;-79
2022/05/28 06:19:26;;;;;;;8.95;6.30;;;;;;;26.25;57.86;100323.19;5113589;28;20400;-76
2022/05/28 06:21:57;;;;;;;8.25;6.22;;;;;;;26.26;57.92;100319.47;5114379;28;20395;-77
2022/05/28 06:24:26;;;;;;;9.38;7.30;;;;;;;26.26;57.66;100322.19;5117160;28;20048;-77
2022/05/28 06:26:57;;;;;;;12.30;6.78;;;;;;;26.26;57.86;100322.19;5117571;28;20040;-77
2022/05/28 06:29:25;;;;;;;8.02;6.50;;;;;;;26.26;57.80;100323.03;5117177;28;20070;-77
2022/05/28 06:31:52;;;;;;;8.18;6.60;;;;;;;26.26;57.71;100327.59;5116605;28;20047;-77
2022/05/28 06:34:19;;;;;;;7.78;6.93;;;;;;;26.26;57.97;100322.19;5116820;28;20483;-77
2022/05/28 06:36:47;;;;;;;9.65;6.82;;;;;;;26.26;57.66;100325.72;5116416;28;20510;-77
2022/05/28 06:39:14;;;;;;;8.10;6.28;;;;;;;26.27;57.65;100324.69;5116689;28;20152;-77
2022/05/28 06:41:41;;;;;;;11.90;6.90;;;;;;;26.27;57.76;100321.16;5115447;28;20048;-77
2022/05/28 06:44:10;;;;;;;8.50;6.55;;;;;;;26.27;57.69;100323.84;5114961;28;20051;-77
2022/05/28 06:46:37;;;;;;;8.32;6.38;;;;;;;26.27;57.83;100323.84;5116359;28;20043;-77
2022/05/28 06:49:05;;;;;;;8.85;6.82;;;;;;;26.29;57.84;100316.34;5115998;28;20055;-77
2022/05/28 06:51:33;;;;;;;9.38;6.68;;;;;;;26.28;57.81;100311.97;5116680;28;20051;-77
2022/05/28 06:54:00;;;;;;;7.72;6.38;;;;;;;26.29;57.65;100321.78;5116472;28;20043;-77
2022/05/28 06:56:28;;;;;;;8.23;7.32;;;;;;;26.28;57.74;100322.81;5116585;28;20040;-77
2022/05/28 06:58:55;;;;;;;9.30;7.13;;;;;;;26.30;57.72;100323.47;5116535;28;20044;-77
2022/05/28 07:01:22;;;;;;;8.93;5.95;;;;;;;26.29;57.74;100319.06;5116051;28;20043;-77
2022/05/28 07:03:50;;;;;;;8.93;6.65;;;;;;;26.30;57.71;100328.91;5116099;28;20043;-77
2022/05/28 07:06:17;;;;;;;8.10;6.72;;;;;;;26.30;57.62;100327.03;5114703;28;20058;-77
2022/05/28 07:08:46;;;;;;;8.38;6.68;;;;;;;26.30;57.81;100324.31;5113442;28;20044;-77
2022/05/28 07:11:13;;;;;;;10.10;6.55;;;;;;;26.30;57.87;100316.19;5115031;28;20047;-77
2022/05/28 07:13:41;;;;;;;7.60;5.55;;;;;;;26.30;57.75;100323.47;5114750;28;20054;-77
2022/05/28 07:16:09;;;;;;;8.98;6.25;;;;;;;26.31;57.90;100323.28;5116139;28;20046;-77
2022/05/28 07:18:38;;;;;;;7.90;6.10;;;;;;;26.31;57.62;100317.00;5115842;28;20044;-77
2022/05/28 07:21:08;;;;;;;7.97;6.03;;;;;;;26.31;57.88;100317.84;5114827;28;20048;-78
2022/05/28 07:23:36;;;;;;;8.27;5.85;;;;;;;26.32;57.88;100307.84;5115935;28;20043;-78
2022/05/28 07:26:09;;;;;;;7.63;6.55;;;;;;;26.32;57.95;100314.09;5115220;28;20070;-77
2022/05/28 07:28:39;;;;;;;8.50;6.75;;;;;;;26.33;57.87;100310.38;5115472;28;20403;-77
2022/05/28 07:31:13;;;;;;;10.85;7.00;;;;;;;26.33;57.95;100306.78;5113952;28;20051;-78
2022/05/28 07:33:43;;;;;;;10.88;6.50;;;;;;;26.33;57.75;100314.94;5114449;28;20067;-77
2022/05/28 07:36:17;;;;;;;7.38;6.50;;;;;;;26.35;57.76;100315.59;5113287;28;20047;-76
2022/05/28 07:38:45;;;;;;;9.18;6.82;;;;;;;26.34;57.97;100313.94;5115476;28;20059;-77
2022/05/28 07:41:15;;;;;;;7.63;6.35;;;;;;;26.35;58.09;100311.00;5115381;28;20051;-77
2022/05/28 07:43:43;;;;;;;9.07;6.93;;;;;;;26.35;57.64;100302.03;5115313;28;20043;-77
2022/05/28 07:46:13;;;;;;;9.60;6.43;;;;;;;26.35;57.86;100308.31;5115405;28;20036;-76
2022/05/28 07:48:41;;;;;;;10.57;7.25;;;;;;;26.35;57.90;100311.00;5115089;28;20051;-77
2022/05/28 07:51:08;;;;;;;9.50;6.95;;;;;;;26.36;57.78;100301.84;5115193;28;20055;-77
2022/05/28 07:53:36;;;;;;;7.57;6.68;;;;;;;26.37;57.89;100306.25;5113661;28;20394;-76
2022/05/28 07:56:04;;;;;;;7.85;6.20;;;;;;;26.37;57.71;100308.97;5115541;28;20047;-77
2022/05/28 07:58:32;;;;;;;9.60;7.53;;;;;;;26.38;58.04;100307.94;5115057;28;20044;-77
2022/05/28 08:01:00;;;;;;;10.40;7.38;;;;;;;26.38;58.12;100304.38;5115232;28;20058;-76
2022/05/28 08:03:29;;;;;;;10.20;7.25;;;;;;;26.38;57.96;100299.78;5115941;28;20048;-76
2022/05/28 08:05:57;;;;;;;8.90;7.22;;;;;;;26.38;58.25;100310.63;5114882;28;20040;-77
2022/05/28 08:08:26;;;;;;;8.95;6.95;;;;;;;26.38;58.00;100307.94;5114486;28;20109;-76
2022/05/28 08:10:54;;;;;;;9.85;6.85;;;;;;;26.40;57.96;100307.72;5113654;28;20044;-76
2022/05/28 08:13:24;;;;;;;12.10;7.28;;;;;;;26.41;58.17;100305.84;5114881;28;20503;-76
2022/05/28 08:15:54;;;;;;;8.45;7.00;;;;;;;26.41;58.21;100301.25;5114913;28;20047;-76
2022/05/28 08:18:24;;;;;;;8.93;7.95;;;;;;;26.42;58.81;100308.38;5114801;28;20506;-78
2022/05/28 08:23:40;;;;;;;13.23;8.43;;;;;;;26.42;60.24;100304.84;5114380;28;20047;-78
2022/05/28 08:26:09;;;;;;;15.18;9.35;;;;;;;26.43;60.12;100307.34;5114594;28;20051;-76
2022/05/28 08:28:39;;;;;;;15.15;12.02;;;;;;;26.46;61.37;100303.44;5114736;28;20052;-77
2022/05/28 08:31:07;;;;;;;14.80;12.30;;;;;;;26.45;62.87;100305.31;5115073;28;20055;-78
2022/05/28 08:33:35;;;;;;;13.88;10.23;;;;;;;26.45;61.66;100310.72;5115275;28;20483;-77
2022/05/28 08:36:03;;;;;;;16.17;11.52;;;;;;;26.46;61.89;100301.56;5115145;28;20040;-78
2022/05/28 08:38:31;;;;;;;18.48;11.75;;;;;;;26.48;62.81;100304.09;5114845;28;20047;-78
2022/05/28 08:41:20;;;;;;;17.13;14.63;;;;;;;26.46;64.12;100301.56;5114892;28;20054;-78
2022/05/28 08:44:05;;;;;;;19.15;15.25;;;;;;;26.45;64.67;100301.75;5113965;28;20044;-77
2022/05/28 08:46:35;;;;;;;18.40;15.25;;;;;;;26.43;65.21;100306.50;5114095;28;20051;-78
2022/05/28 08:49:05;;;;;;;21.45;16.40;;;;;;;26.41;64.92;100298.53;5115089;28;20040;-77
2022/05/28 08:51:52;;;;;;;18.58;16.13;;;;;;;26.41;65.45;100295.00;5077585;28;20052;-78
2022/05/28 08:54:33;;;;;;;16.60;12.75;;;;;;;26.40;64.80;100302.28;5095191;28;20039;-87
2022/05/28 08:57:07;;;;;;;16.13;12.45;;;;;;;26.42;64.19;100305.69;5095825;28;20036;-85
2022/05/28 08:59:42;;;;;;;19.90;15.38;;;;;;;26.45;64.73;100301.75;5094176;28;20070;-85
2022/05/28 09:02:39;;;;;;;15.55;13.32;;;;;;;26.45;64.54;100299.88;5093242;28;20051;-78
2022/05/28 09:05:45;;;;;;;18.02;14.63;;;;;;;26.50;65.23;100302.03;5036044;28;20053;-77
2022/05/28 09:08:14;;;;;;;18.58;13.35;;;;;;;26.57;64.63;100302.94;4991666;28;20065;-77
2022/05/28 09:10:49;;;;;;;16.80;13.43;;;;;;;26.61;64.41;100294.19;4992382;28;21715;-77
2022/05/28 09:13:31;;;;;;;19.00;14.27;;;;;;;26.61;65.11;100294.19;4991546;28;20422;-76
2022/05/28 09:16:02;;;;;;;15.57;13.93;;;;;;;26.61;65.08;100287.94;4992272;28;20065;-77
2022/05/28 09:18:35;;;;;;;18.15;13.48;;;;;;;26.60;65.00;100284.38;4991625;28;20066;-76
2022/05/28 09:21:04;;;;;;;15.32;13.02;;;;;;;26.63;65.02;100289.44;4975181;28;20066;-77
2022/05/28 09:23:47;;;;;;;19.65;13.88;;;;;;;26.63;65.76;100283.16;4991861;28;20066;-77
2022/05/28 09:26:21;;;;;;;15.90;13.35;;;;;;;26.61;65.55;100275.19;4991519;28;20206;-76
2022/05/28 09:29:04;;;;;;;13.77;12.25;;;;;;;26.61;65.00;100268.94;4975827;28;20098;-77
2022/05/28 09:31:49;;;;;;;14.30;12.23;;;;;;;26.62;65.26;100279.63;4975169;28;20055;-76
2022/05/28 09:34:44;;;;;;;16.40;11.65;;;;;;;26.61;65.33;100282.50;4989035;28;20051;-76
2022/05/28 09:37:39;;;;;;;18.75;13.00;;;;;;;26.65;64.74;100274.81;4972974;28;20070;-75
2022/05/28 09:40:19;;;;;;;14.55;12.15;;;;;;;26.74;63.85;100268.22;4975078;28;20057;-76
2022/05/28 09:43:08;;;;;;;17.33;11.27;;;;;;;26.73;64.20;100263.81;5013711;28;20088;-75
2022/05/28 09:45:48;;;;;;;13.32;10.93;;;;;;;26.74;64.44;100262.78;5073290;28;20063;-75
2022/05/28 09:48:22;;;;;;;14.10;10.48;;;;;;;26.72;64.40;100262.16;5093300;28;20051;-75
2022/05/28 09:50:50;;;;;;;17.35;9.75;;;;;;;26.76;62.38;100267.00;5093207;28;20055;-75
2022/05/28 09:56:41;;;;;;;14.40;9.50;;;;;;;26.78;63.37;100264.06;5094729;28;20055;-76
2022/05/28 09:59:44;;;;;;;15.65;10.10;;;;;;;26.76;62.80;100264.28;5084704;28;20063;-76
2022/05/28 10:02:22;;;;;;;9.70;8.35;;;;;;;26.83;61.91;100251.59;5096547;28;20044;-76
2022/05/28 10:05:17;;;;;;;9.90;7.70;;;;;;;26.94;60.79;100252.97;5099397;28;20051;-77
2022/05/28 10:07:49;;;;;;;12.32;9.60;;;;;;;27.03;59.80;100248.22;5114247;28;20541;-76
2022/05/28 10:10:29;;;;;;;10.30;8.43;;;;;;;26.98;60.97;100250.66;5117329;28;20043;-77
2022/05/28 10:13:17;;;;;;;12.57;7.78;;;;;;;26.95;60.76;100259.22;5116355;28;20043;-76
2022/05/28 10:16:05;;;;;;;12.88;7.80;;;;;;;27.08;58.85;100249.31;5117792;28;20077;-76
2022/05/28 10:18:41;;;;;;;12.32;7.60;;;;;;;27.04;59.66;100248.03;5107142;28;20044;-76
2022/05/28 10:21:10;;;;;;;10.90;6.55;;;;;;;27.00;60.12;100248.63;5097016;28;20048;-77
2022/05/28 10:23:40;;;;;;;11.40;7.38;;;;;;;26.97;60.46;100247.13;5095077;28;20078;-76
2022/05/28 10:26:25;;;;;;;9.02;7.00;;;;;;;26.93;61.06;100239.56;5115319;28;20039;-76
2022/05/28 10:28:55;;;;;;;11.25;7.97;;;;;;;26.88;60.73;100246.44;5117238;28;20463;-77
2022/05/28 10:31:35;;;;;;;17.73;8.32;;;;;;;26.87;60.99;100238.47;5117321;28;20054;-75
2022/05/28 10:34:04;;;;;;;8.10;6.85;;;;;;;26.84;61.13;100239.69;5116764;28;20050;-75
2022/05/28 10:36:35;;;;;;;10.23;7.32;;;;;;;26.83;61.13;100237.19;5109952;28;20048;-76
2022/05/28 10:39:09;;;;;;;10.00;7.50;;;;;;;26.81;60.71;100231.09;5114640;28;20040;-75
2022/05/28 10:41:38;;;;;;;11.43;7.28;;;;;;;26.78;60.80;100226.91;5117132;28;20048;-77
2022/05/28 10:44:06;;;;;;;11.60;7.25;;;;;;;26.77;60.64;100230.66;5116738;28;20051;-86
2022/05/28 10:47:20;;;;;;;13.05;8.85;;;;;;;26.78;62.34;100223.34;5116844;28;20054;-75
2022/05/28 10:49:47;;;;;;;18.70;7.57;;;;;;;26.77;60.92;100211.63;5053796;28;20057;-75
2022/05/28 10:52:24;;;;;;;15.10;8.05;;;;;;;26.77;62.28;100213.53;5053274;28;20409;-74
2022/05/28 10:54:54;;;;;;;13.57;8.40;;;;;;;26.76;62.04;100201.81;5053495;28;20627;-76
2022/05/28 10:57:42;;;;;;;12.02;7.53;;;;;;;26.78;62.38;100204.34;5053004;28;20045;-74
2022/05/28 11:00:13;;;;;;;10.15;6.85;;;;;;;26.75;61.94;100199.31;5020501;28;20100;-82
2022/05/28 11:02:58;;;;;;;9.68;6.97;;;;;;;26.75;62.36;100196.59;5036186;28;20053;-76
2022/05/28 11:05:28;;;;;;;12.68;6.40;;;;;;;26.75;61.89;100188.44;5053908;28;20555;-78
2022/05/28 11:07:59;;;;;;;10.23;7.25;;;;;;;26.74;61.58;100186.75;5035897;28;20052;-78
2022/05/28 11:10:47;;;;;;;11.70;7.75;;;;;;;26.74;61.79;100184.03;5054120;28;20053;-77
2022/05/28 11:13:42;;;;;;;10.48;7.18;;;;;;;26.74;61.60;100178.59;5037325;28;20067;-77
2022/05/28 11:16:40;;;;;;;10.75;7.05;;;;;;;26.73;61.01;100177.75;5050450;28;20456;-76
2022/05/28 11:19:18;;;;;;;9.27;7.10;;;;;;;26.74;60.83;100173.16;5053361;28;20414;-75
2022/05/28 11:21:45;;;;;;;10.02;7.35;;;;;;;26.73;60.81;100172.34;5053049;28;20049;-74
2022/05/28 11:24:22;;;;;;;11.07;6.70;;;;;;;26.75;60.65;100170.28;5053245;28;20488;-75
2022/05/28 11:27:20;;;;;;;8.20;6.85;;;;;;;26.74;60.45;100163.19;5080903;28;20056;-75
2022/05/28 11:30:05;;;;;;;9.57;6.93;;;;;;;26.73;60.09;100164.19;5095365;28;20051;-75
2022/05/28 11:32:52;;;;;;;9.30;7.10;;;;;;;26.74;59.99;100167.75;5095591;28;20054;-76
2022/05/28 11:36:12;;;;;;;8.90;6.53;;;;;;;26.73;59.47;100175.06;5103500;28;20048;-75
2022/05/28 11:38:51;;;;;;;10.68;6.90;;;;;;;26.73;59.43;100166.06;5090900;28;20055;-75
2022/05/28 11:41:34;;;;;;;10.93;6.78;;;;;;;26.72;59.93;100158.97;5114109;28;20039;-75
2022/05/28 11:44:14;;;;;;;;;;;;;;;26.77;60.32;100159.22;5116281;28;20412;-75
2022/05/28 11:47:04;;;;;;;13.38;7.80;;;;;;;26.80;61.03;100156.09;5115561;28;19920;-75
2022/05/28 11:52:45;;;;;;;12.95;6.68;;;;;;;26.84;61.79;100169.09;5115021;28;20498;-76